Flight Track Log - Related Links

Times and Time Zones

All times are in EDT time to prevent confusion due to time zone crossing. See the TAM3135 flight status page for this flight to view local times or setup timezone preferences in your user account.

Time Position Orientation Groundspeed Altitude Reporting Facility
EDT Latitude Longitude Course Direction KTS MPH feet Rate Location/Type
Wed 05:46:21 PM -20.2620 -40.2750 108° East 127 146  Level FlightAware ADS-B
Wed 05:47:23 PM -20.2580 -40.2890 287° West 127 146 11 Level FlightAware ADS-B
Wed 05:48:55 PM -20.2620 -40.2750 107° East 127 146 11 Level FlightAware ADS-B
Wed 05:49:22 PM -20.2620 -40.2760 270° West 127 146 12 Level FlightAware ADS-B
Wed 05:50:00 PM -20.2580 -40.2890 288° West 127 146 12 Level FlightAware ADS-B
Wed 05:51:37 PM -20.2620 -40.2750 107° East 127 146 12 Level FlightAware ADS-B
Wed 05:52:01 PM -20.2580 -40.2890 287° West 127 146 13 Level FlightAware ADS-B
Wed 05:53:24 PM -20.2610 -40.2760 104° East 127 146 13 Level FlightAware ADS-B
Wed 05:54:24 PM -20.2580 -40.2890 284° West 127 146 14 Level FlightAware ADS-B
Wed 05:54:51 PM -20.2620 -40.2750 107° East 127 146 15 Level FlightAware ADS-B
Wed 05:56:28 PM -20.2580 -40.2890 287° West 127 146 15 Level FlightAware ADS-B
Wed 05:59:00 PM -20.3897 -40.5243 239° Southwest  Level Estimated
Wed 06:00:00 PM -20.4415 -40.6173 239° Southwest  Level Estimated
Wed 06:00:38 PM -20.2620 -40.2760 239° Southwest 127 146  Level FlightAware ADS-B
Wed 06:01:18 PM -20.2580 -40.2890 288° West 127 146 21 Level FlightAware ADS-B
Wed 06:04:00 PM -20.3983 -40.5398 239° Southwest  Level Estimated
Wed 06:05:00 PM -20.4502 -40.6328 239° Southwest  Level Estimated
Wed 06:06:00 PM -20.5020 -40.7258 239° Southwest  Level Estimated
Wed 06:07:00 PM -20.5538 -40.8190 239° Southwest  Level Estimated
Wed 06:08:00 PM -20.6055 -40.9121 239° Southwest  Level Estimated
Wed 06:09:00 PM -20.6572 -41.0054 239° Southwest  Level Estimated
Wed 06:10:23 PM -20.2580 -40.2890 258° West 127 146  Level FlightAware ADS-B
Wed 06:12:09 PM -20.2590 -40.2890 180° South 127 146 68 Level FlightAware ADS-B
Wed 06:12:52 PM -20.2610 -40.2910 223° Southwest 127 146 113 Level FlightAware ADS-B
Wed 06:13:37 PM -20.2640 -40.2910 180° South 127 146 155 Level FlightAware ADS-B
Wed 06:14:24 PM -20.2610 -40.2890 32° Northeast 127 146 254 Level FlightAware ADS-B
Wed 06:14:48 PM -20.2470 -40.2800 31° Northeast 150 173 300 1,459 Climbing FlightAware ADS-B
Wed 06:15:01 PM -20.2380 -40.2740 32° Northeast 153 176 900 1,674 Climbing FlightAware ADS-B
Wed 06:15:31 PM -20.2190 -40.2610 33° Northeast 185 213 1,500 1,143 Climbing FlightAware ADS-B
Wed 06:15:43 PM -20.2110 -40.2540 39° Northeast 207 238 1,700 1,034 Climbing FlightAware ADS-B
Wed 06:16:00 PM -20.2050 -40.2370 69° East 241 277 2,000 1,696 Climbing FlightAware ADS-B
Wed 06:16:29 PM -20.2250 -40.2080 126° Southeast 276 318 3,000 2,400 Climbing FlightAware ADS-B
Wed 06:16:40 PM -20.2360 -40.2040 161° South 275 316 3,600 3,900 Climbing FlightAware ADS-B
Wed 06:17:09 PM -20.2700 -40.2020 177° South 252 290 5,600 3,310 Climbing FlightAware ADS-B
Wed 06:17:38 PM -20.3080 -40.2000 177° South 276 318 6,800 2,586 Climbing FlightAware ADS-B
Wed 06:18:07 PM -20.3470 -40.1940 172° South 285 328 8,100 2,949 Climbing FlightAware ADS-B
Wed 06:18:37 PM -20.3810 -40.2110 205° Southwest 277 319 9,700 2,239 Climbing FlightAware ADS-B
Wed 06:19:14 PM -20.4220 -40.2390 213° Southwest 309 356 10,600 1,671 Climbing FlightAware ADS-B
Wed 06:19:56 PM -20.4750 -40.2760 213° Southwest 337 388 11,900 2,000 Climbing FlightAware ADS-B
Wed 06:20:38 PM -20.5330 -40.3150 212° Southwest 354 407 13,400 2,357 Climbing FlightAware ADS-B
Wed 06:21:20 PM -20.5910 -40.3550 213° Southwest 356 410 15,200 2,259 Climbing FlightAware ADS-B
Wed 06:22:03 PM -20.6530 -40.3970 212° Southwest 367 422 16,600 1,902 Climbing FlightAware ADS-B
Wed 06:22:42 PM -20.7090 -40.4360 213° Southwest 374 430 17,800 1,835 Climbing FlightAware ADS-B
Wed 06:23:28 PM -20.7740 -40.4800 212° Southwest 380 437 19,200 1,906 Climbing FlightAware ADS-B
Wed 06:24:07 PM -20.8370 -40.5230 213° Southwest 385 443 20,500 1,953 Climbing FlightAware ADS-B
Wed 06:24:54 PM -20.9070 -40.5720 213° Southwest 384 442 22,000 1,737 Climbing FlightAware ADS-B
Wed 06:26:01 PM -21.0030 -40.6510 218° Southwest 394 453 23,800 1,389 Climbing FlightAware ADS-B
Wed 06:26:42 PM -21.0660 -40.7020 217° Southwest 409 471 24,500 1,071 Climbing FlightAware ADS-B
Wed 06:27:25 PM -21.1250 -40.7500 217° Southwest 418 481 25,300 1,465 Climbing FlightAware ADS-B
Wed 06:28:08 PM -21.1910 -40.8050 218° Southwest 415 478 26,600 1,643 Climbing FlightAware ADS-B
Wed 06:28:49 PM -21.2580 -40.8600 217° Southwest 417 480 27,600 1,357 Climbing FlightAware ADS-B
Wed 06:29:32 PM -21.3220 -40.9120 217° Southwest 419 482 28,500 1,301 Climbing FlightAware ADS-B
Wed 06:30:12 PM -21.4000 -40.9770 218° Southwest 428 493 29,400 963 Climbing FlightAware ADS-B
Wed 06:30:53 PM -21.4440 -41.0130 217° Southwest 433 498 29,800 791 Climbing FlightAware ADS-B
Wed 06:31:43 PM -21.5310 -41.0840 217° Southwest 439 505 30,600 1,109 Climbing FlightAware ADS-B
Wed 06:32:25 PM -21.5980 -41.1400 218° Southwest 439 505 31,500 1,571 Climbing FlightAware ADS-B
Wed 06:33:07 PM -21.6650 -41.1950 217° Southwest 425 489 32,800 1,537 Climbing FlightAware ADS-B
Wed 06:33:47 PM -21.7250 -41.2450 218° Southwest 421 484 33,600 1,229 Climbing FlightAware ADS-B
Wed 06:34:30 PM -21.8200 -41.3250 218° Southwest 422 486 34,500 1,185 Climbing FlightAware ADS-B
Wed 06:35:08 PM -21.8780 -41.3740 218° Southwest 418 481 35,200 1,047 Climbing FlightAware ADS-B
Wed 06:35:56 PM -21.9520 -41.4360 218° Southwest 417 480 36,000 511 Climbing FlightAware ADS-B
Wed 06:36:42 PM -22.0220 -41.4950 218° Southwest 414 476 36,000  Level FlightAware ADS-B
Wed 06:37:20 PM -22.0780 -41.5430 218° Southwest 414 476 36,000  Level FlightAware ADS-B
Wed 06:38:06 PM -22.1490 -41.6030 218° Southwest 412 474 36,000  Level FlightAware ADS-B
Wed 06:38:46 PM -22.2080 -41.6530 218° Southwest 410 472 36,000  Level FlightAware ADS-B
Wed 06:39:28 PM -22.2720 -41.7070 218° Southwest 409 471 36,000  Level FlightAware ADS-B
Wed 06:40:10 PM -22.3330 -41.7590 218° Southwest 411 473 36,000  Level FlightAware ADS-B
Wed 06:40:52 PM -22.3970 -41.8120 217° Southwest 405 466 36,000  Level FlightAware ADS-B
Wed 06:41:34 PM -22.4320 -41.8860 243° Southwest 397 457 36,000  Level FlightAware ADS-B
Wed 06:42:18 PM -22.4670 -41.9650 244° Southwest 394 453 36,000  Level FlightAware ADS-B
Wed 06:43:00 PM -22.5000 -42.0380 244° Southwest 392 451 36,000  Level FlightAware ADS-B
Wed 06:43:40 PM -22.5320 -42.1090 244° Southwest 391 450 36,000  Level FlightAware ADS-B
Wed 06:44:24 PM -22.5660 -42.1850 244° Southwest 390 449 36,000  Level FlightAware ADS-B
Wed 06:45:04 PM -22.5990 -42.2570 244° Southwest 389 448 36,000  Level FlightAware ADS-B
Wed 06:45:48 PM -22.6330 -42.3340 244° Southwest 390 449 36,000  Level FlightAware ADS-B
Wed 06:46:30 PM -22.6660 -42.4060 244° Southwest 390 449 36,000  Level FlightAware ADS-B
Wed 06:47:12 PM -22.6930 -42.4670 244° Southwest 389 448 36,000  Level FlightAware ADS-B
Wed 06:47:50 PM -22.7300 -42.5470 243° Southwest 389 448 36,000  Level FlightAware ADS-B
Wed 06:48:36 PM -22.7650 -42.6270 245° Southwest 389 448 36,000  Level FlightAware ADS-B
Wed 06:49:17 PM -22.7970 -42.6990 244° Southwest 389 448 36,000  Level FlightAware ADS-B
Wed 06:49:56 PM -22.8280 -42.7670 244° Southwest 390 449 36,000  Level FlightAware ADS-B
Wed 06:50:40 PM -22.8630 -42.8460 244° Southwest 392 451 36,000  Level FlightAware ADS-B
Wed 06:51:20 PM -22.8940 -42.9160 244° Southwest 392 451 36,000  Level FlightAware ADS-B
Wed 06:52:02 PM -22.9280 -42.9910 244° Southwest 391 450 36,000  Level FlightAware ADS-B
Wed 06:52:46 PM -22.9620 -43.0680 244° Southwest 391 450 36,000  Level FlightAware ADS-B
Wed 06:53:26 PM -22.9940 -43.1390 244° Southwest 392 451 36,000  Level FlightAware ADS-B
Wed 06:54:12 PM -23.0290 -43.2200 245° Southwest 394 453 36,000  Level FlightAware ADS-B
Wed 06:54:52 PM -23.0610 -43.2920 244° Southwest 394 453 36,000  Level FlightAware ADS-B
Wed 06:55:34 PM -23.0940 -43.3670 244° Southwest 396 456 36,000  Level FlightAware ADS-B
Wed 06:56:16 PM -23.1280 -43.4420 244° Southwest 398 458 36,000  Level FlightAware ADS-B
Wed 06:56:58 PM -23.1610 -43.5190 245° Southwest 396 456 36,000 67 Level FlightAware ADS-B
Wed 06:57:46 PM -23.1970 -43.5980 244° Southwest 394 453 36,100  Climbing FlightAware ADS-B
Wed 06:58:34 PM -23.2240 -43.6610 245° Southwest 394 453 36,000 -71 Descending FlightAware ADS-B
Wed 06:59:11 PM -23.2490 -43.7170 244° Southwest 394 453 36,000  Level FlightAware ADS-B
Wed 06:59:58 PM -23.2930 -43.8190 245° Southwest 389 448 36,000  Level FlightAware ADS-B
Wed 07:01:02 PM -23.3360 -43.9160 244° Southwest 389 448 36,000  Level FlightAware ADS-B
Wed 07:02:35 PM -23.3990 -44.0920 249° West 389 448 36,000  Level FlightAware ADS-B
Wed 07:03:11 PM -23.4230 -44.1460 244° Southwest 389 448 36,000  Level FlightAware ADS-B
Wed 07:03:59 PM -23.4550 -44.2180 244° Southwest 389 448 36,000  Level FlightAware ADS-B
Wed 07:04:36 PM -23.4800 -44.2730 244° Southwest 389 448 36,000  Level FlightAware ADS-B
Wed 07:05:19 PM -23.4550 -44.3950 283° West 36,000  Level FlightAware ADS-B
Wed 07:05:50 PM -23.4710 -44.4740 258° West 386 444 36,000  Level FlightAware ADS-B
Wed 07:06:30 PM -23.4880 -44.5540 257° West 386 444 36,000  Level FlightAware ADS-B
Wed 07:07:12 PM -23.5010 -44.6120 256° West 387 445 36,000  Level FlightAware ADS-B
Wed 07:08:30 PM -23.5360 -44.7790 257° West 390 449 36,000  Level FlightAware ADS-B
Wed 07:09:19 PM -23.5540 -44.8660 257° West 391 450 36,000  Level FlightAware ADS-B
Wed 07:10:01 PM -23.5750 -44.9670 257° West 391 450 36,000  Level FlightAware ADS-B
Wed 07:10:57 PM -23.5950 -45.0640 257° West 391 450 36,000  Level FlightAware ADS-B
Wed 07:11:33 PM -23.6090 -45.1320 257° West 391 450 36,000 -71 Level FlightAware ADS-B
Wed 07:12:21 PM -23.6310 -45.2390 257° West 389 448 35,900 -1,841 Descending FlightAware ADS-B
Wed 07:13:01 PM -23.6470 -45.3160 257° West 408 470 33,300 -3,704 Descending FlightAware ADS-B
Wed 07:13:42 PM -23.6640 -45.3980 257° West 415 478 30,900 -2,791 Descending FlightAware ADS-B
Wed 07:14:27 PM -23.6830 -45.4880 257° West 391 450 29,300 -2,500 Descending FlightAware ADS-B
Wed 07:15:06 PM -23.6980 -45.5630 258° West 384 442 27,400 -2,857 Descending FlightAware ADS-B
Wed 07:15:51 PM -23.7160 -45.6500 257° West 371 427 25,300 -2,329 Descending FlightAware ADS-B
Wed 07:16:31 PM -23.7260 -45.7000 258° West 361 415 24,100 -2,415 Descending FlightAware ADS-B
Wed 07:17:13 PM -23.7430 -45.7870 258° West 355 409 22,000 -2,634 Descending FlightAware ADS-B
Wed 07:17:53 PM -23.7570 -45.8550 257° West 348 400 20,500 -2,122 Descending FlightAware ADS-B
Wed 07:18:35 PM -23.7710 -45.9240 257° West 336 387 19,100 -1,800 Descending FlightAware ADS-B
Wed 07:18:53 PM -23.7850 -45.9520 241° Southwest 338 389 18,700 -1,333 Descending FlightAware ADS-B
Wed 07:19:29 PM -23.8170 -46.0020 235° Southwest 327 376 17,900 -1,326 Descending FlightAware ADS-B
Wed 07:20:19 PM -23.8600 -46.0700 235° Southwest 321 369 16,800 -1,286 Descending FlightAware ADS-B
Wed 07:20:53 PM -23.8880 -46.1130 235° Southwest 309 356 16,100 -1,217 Descending FlightAware ADS-B
Wed 07:21:28 PM -23.9150 -46.1560 236° Southwest 296 341 15,400 -1,214 Descending FlightAware ADS-B
Wed 07:22:17 PM -23.9210 -46.2410 266° West 322 371 14,400 -1,416 Descending FlightAware ADS-B
Wed 07:22:57 PM -23.9130 -46.3060 278° West 321 369 13,300 -1,674 Descending FlightAware ADS-B
Wed 07:23:43 PM -23.9060 -46.3800 276° West 316 364 12,000 -1,605 Descending FlightAware ADS-B
Wed 07:24:23 PM -23.8990 -46.4420 277° West 310 357 11,000 -1,500 Descending FlightAware ADS-B
Wed 07:24:51 PM -23.8920 -46.4850 280° West 305 351 10,300 -1,333 Descending FlightAware ADS-B
Wed 07:24:59 PM -23.8870 -46.4940 301° West 302 348 10,200 -600 Descending FlightAware ADS-B
Wed 07:25:31 PM -23.8570 -46.5300 312° West 282 325 9,900 -500 Descending FlightAware ADS-B
Wed 07:25:59 PM -23.8320 -46.5590 313° West 277 319 9,700 -429 Descending FlightAware ADS-B
Wed 07:26:13 PM -23.8200 -46.5730 313° West 276 318 9,600 -429 Descending FlightAware ADS-B
Wed 07:26:41 PM -23.7950 -46.6020 313° West 276 318 9,400 -517 Descending FlightAware ADS-B
Wed 07:27:11 PM -23.7700 -46.6330 311° West 275 316 9,100 -857 Descending FlightAware ADS-B
Wed 07:27:37 PM -23.7470 -46.6590 314° West 270 311 8,600 -840 Descending FlightAware ADS-B
Wed 07:28:01 PM -23.7280 -46.6820 312° West 254 292 8,400 -682 Descending FlightAware ADS-B
Wed 07:28:21 PM -23.7100 -46.6990 319° Northwest 246 283 8,100 -774 Descending FlightAware ADS-B
Wed 07:28:32 PM -23.7000 -46.7060 327° Northwest 241 277 8,000 -789 Descending FlightAware ADS-B
Wed 07:28:59 PM -23.6740 -46.7220 331° Northwest 234 269 7,600 -1,158 Descending FlightAware ADS-B
Wed 07:29:29 PM -23.6460 -46.7400 330° Northwest 232 267 6,900 -1,300 Descending FlightAware ADS-B
Wed 07:29:59 PM -23.6190 -46.7580 329° Northwest 228 262 6,300 -1,138 Descending FlightAware ADS-B
Wed 07:30:27 PM -23.5940 -46.7750 328° Northwest 227 261 5,800 -1,071 Descending FlightAware ADS-B
Wed 07:30:55 PM -23.5690 -46.7920 328° Northwest 225 259 5,300 -610 Descending FlightAware ADS-B
Wed 07:31:26 PM -23.5620 -46.7970 327° Northwest 226 260 5,200 -75 Descending FlightAware ADS-B
Wed 07:32:15 PM -23.4940 -46.7980 359° North 223 257 5,200  Level FlightAware ADS-B
Wed 07:32:41 PM -23.4820 -46.7740 61° Northeast 200 230 5,200  Level FlightAware ADS-B
Wed 07:33:08 PM -23.4870 -46.7560 107° East 176 203 5,200 -158 Level FlightAware ADS-B
Wed 07:33:19 PM -23.4960 -46.7470 137° Southeast 165 190 5,100 -800 Descending FlightAware ADS-B
Wed 07:33:53 PM -23.5180 -46.7320 148° Southeast 157 181 4,600 -900 Descending FlightAware ADS-B
Wed 07:34:19 PM -23.5340 -46.7210 148° Southeast 150 173 4,200 -789 Descending FlightAware ADS-B
Wed 07:34:31 PM -23.5400 -46.7160 143° Southeast 144 166 4,100 -600 Descending FlightAware ADS-B
Wed 07:34:59 PM -23.5560 -46.7060 150° Southeast 138 159 3,800 -677 Descending FlightAware ADS-B
Wed 07:35:33 PM -23.5740 -46.6930 146° Southeast 138 159 3,400 -727 Descending FlightAware ADS-B
Wed 07:36:05 PM -23.5920 -46.6810 149° Southeast 138 159 3,000 -689 Descending FlightAware ADS-B
Wed 07:36:34 PM -23.6060 -46.6710 147° Southeast 136 157 2,700 -600 Descending FlightAware ADS-B
Wed 07:36:45 PM -23.6130 -46.6660 147° Southeast 136 157 2,600 -615 Descending FlightAware ADS-B
Wed 07:37:13 PM -23.6240 -46.6590 150° Southeast 134 154 2,300 -643 Descending FlightAware ADS-B
Wed 07:37:47 PM -23.6190 -46.6450 69° East 127 146 -4,059 Descending FlightAware ADS-B
Wed 07:38:40 PM -23.6310 -46.6550 217° Southwest 127 146  Level FlightAware ADS-B
Wed 07:39:04 PM -23.6300 -46.6550 360° North 127 146  Level FlightAware ADS-B
Wed 07:39:31 PM -23.6360 -46.6420 117° Southeast 127 146  Level FlightAware ADS-B
Wed 07:40:19 PM -23.6290 -46.6440 345° North 127 146  Level FlightAware ADS-B
Wed 07:41:23 PM -23.6300 -46.6590 266° West 127 146  Level FlightAware ADS-B
Wed 07:41:52 PM -23.6360 -46.6450 115° Southeast 127 146  Level FlightAware ADS-B
Wed 07:42:34 PM -23.6300 -46.6590 295° West 127 146  Level FlightAware ADS-B
Wed 07:43:01 PM -23.6360 -46.6460 117° Southeast 127 146  Level FlightAware ADS-B
Wed 07:43:20 PM -23.6300 -46.6590 297° West 127 146  Level FlightAware ADS-B
Wed 07:43:48 PM -23.6360 -46.6450 115° Southeast 127 146  Level FlightAware ADS-B
Wed 07:45:48 PM -23.6350 -46.6470 314° West 127 146  Level FlightAware ADS-B
Wed 07:46:00 PM -23.6267 -46.6554 314° West  Level Estimated

Login

Don't have an account? Register now (free) for customized features, flight alerts, and more!